sensor_id;sensor_type;location;lat;lon;timestamp;temperature;humidity
68051;DHT22;54839;51.364;7.246;2023-08-06T00:02:04;15.30;99.90
68051;DHT22;54839;51.364;7.246;2023-08-06T00:04:29;15.20;99.90
68051;DHT22;54839;51.364;7.246;2023-08-06T00:06:55;15.30;99.90
68051;DHT22;54839;51.364;7.246;2023-08-06T00:09:20;15.30;99.90
68051;DHT22;54839;51.364;7.246;2023-08-06T00:11:46;15.30;99.90
68051;DHT22;54839;51.364;7.246;2023-08-06T00:14:12;15.30;99.90
68051;DHT22;54839;51.364;7.246;2023-08-06T00:16:42;15.30;99.90
68051;DHT22;54839;51.364;7.246;2023-08-06T00:19:08;15.40;99.90
68051;DHT22;54839;51.364;7.246;2023-08-06T00:21:33;15.40;99.90
68051;DHT22;54839;51.364;7.246;2023-08-06T00:23:59;15.40;99.90
68051;DHT22;54839;51.364;7.246;2023-08-06T00:26:25;15.40;99.90
68051;DHT22;54839;51.364;7.246;2023-08-06T00:28:50;15.40;99.90
68051;DHT22;54839;51.364;7.246;2023-08-06T00:31:16;15.30;99.90
68051;DHT22;54839;51.364;7.246;2023-08-06T00:33:42;15.40;99.90
68051;DHT22;54839;51.364;7.246;2023-08-06T00:36:07;15.40;99.90
68051;DHT22;54839;51.364;7.246;2023-08-06T00:38:33;15.40;99.90
68051;DHT22;54839;51.364;7.246;2023-08-06T00:40:58;15.20;99.90
68051;DHT22;54839;51.364;7.246;2023-08-06T00:43:24;15.30;99.90
68051;DHT22;54839;51.364;7.246;2023-08-06T00:45:50;15.30;99.90
68051;DHT22;54839;51.364;7.246;2023-08-06T00:48:15;15.30;99.90
68051;DHT22;54839;51.364;7.246;2023-08-06T00:50:41;15.20;99.90
68051;DHT22;54839;51.364;7.246;2023-08-06T00:53:07;15.20;99.90
68051;DHT22;54839;51.364;7.246;2023-08-06T00:55:33;15.20;99.90
68051;DHT22;54839;51.364;7.246;2023-08-06T00:57:59;15.20;99.90
68051;DHT22;54839;51.364;7.246;2023-08-06T01:00:26;15.10;99.90
68051;DHT22;54839;51.364;7.246;2023-08-06T01:02:52;15.20;99.90
68051;DHT22;54839;51.364;7.246;2023-08-06T01:05:18;15.20;99.90
68051;DHT22;54839;51.364;7.246;2023-08-06T01:07:48;15.10;99.90
68051;DHT22;54839;51.364;7.246;2023-08-06T01:13:39;15.10;99.90
68051;DHT22;54839;51.364;7.246;2023-08-06T01:16:07;15.10;99.90
68051;DHT22;54839;51.364;7.246;2023-08-06T01:18:34;15.10;99.90
68051;DHT22;54839;51.364;7.246;2023-08-06T01:21:00;15.10;99.90
68051;DHT22;54839;51.364;7.246;2023-08-06T01:23:26;15.00;99.90
68051;DHT22;54839;51.364;7.246;2023-08-06T01:31:41;14.90;99.90
68051;DHT22;54839;51.364;7.246;2023-08-06T01:34:31;15.00;99.90
68051;DHT22;54839;51.364;7.246;2023-08-06T01:36:59;15.00;99.90
68051;DHT22;54839;51.364;7.246;2023-08-06T01:39:26;15.10;99.90
68051;DHT22;54839;51.364;7.246;2023-08-06T01:41:51;15.00;99.90
68051;DHT22;54839;51.364;7.246;2023-08-06T01:44:17;15.10;99.90
68051;DHT22;54839;51.364;7.246;2023-08-06T01:46:43;15.10;99.90
68051;DHT22;54839;51.364;7.246;2023-08-06T01:49:09;15.10;99.90
68051;DHT22;54839;51.364;7.246;2023-08-06T01:51:34;15.10;99.90
68051;DHT22;54839;51.364;7.246;2023-08-06T01:54:00;15.10;99.90
68051;DHT22;54839;51.364;7.246;2023-08-06T01:56:25;15.10;99.90
68051;DHT22;54839;51.364;7.246;2023-08-06T01:58:51;15.10;99.90
68051;DHT22;54839;51.364;7.246;2023-08-06T02:01:16;15.10;99.90
68051;DHT22;54839;51.364;7.246;2023-08-06T02:03:42;15.00;99.90
68051;DHT22;54839;51.364;7.246;2023-08-06T02:06:07;15.00;99.90
68051;DHT22;54839;51.364;7.246;2023-08-06T02:08:33;15.00;99.90
68051;DHT22;54839;51.364;7.246;2023-08-06T02:10:58;15.00;99.90
68051;DHT22;54839;51.364;7.246;2023-08-06T02:13:24;15.00;99.90
68051;DHT22;54839;51.364;7.246;2023-08-06T02:15:50;15.10;99.90
68051;DHT22;54839;51.364;7.246;2023-08-06T02:18:16;15.10;99.90
68051;DHT22;54839;51.364;7.246;2023-08-06T02:20:42;15.10;99.90
68051;DHT22;54839;51.364;7.246;2023-08-06T02:23:08;15.10;99.90
68051;DHT22;54839;51.364;7.246;2023-08-06T02:25:34;15.00;99.90
68051;DHT22;54839;51.364;7.246;2023-08-06T02:27:59;15.10;99.90
68051;DHT22;54839;51.364;7.246;2023-08-06T02:30:25;15.10;99.90
68051;DHT22;54839;51.364;7.246;2023-08-06T02:32:51;15.10;99.90
68051;DHT22;54839;51.364;7.246;2023-08-06T02:35:16;15.10;99.90
68051;DHT22;54839;51.364;7.246;2023-08-06T02:37:42;15.10;99.90
68051;DHT22;54839;51.364;7.246;2023-08-06T02:40:08;15.00;99.90
68051;DHT22;54839;51.364;7.246;2023-08-06T02:42:33;15.10;99.90
68051;DHT22;54839;51.364;7.246;2023-08-06T02:44:59;15.00;99.90
68051;DHT22;54839;51.364;7.246;2023-08-06T02:47:25;15.00;99.90
68051;DHT22;54839;51.364;7.246;2023-08-06T02:49:50;15.10;99.90
68051;DHT22;54839;51.364;7.246;2023-08-06T02:52:16;15.10;99.90
68051;DHT22;54839;51.364;7.246;2023-08-06T02:54:42;15.10;99.90
68051;DHT22;54839;51.364;7.246;2023-08-06T02:57:07;15.10;99.90
68051;DHT22;54839;51.364;7.246;2023-08-06T02:59:33;15.10;99.90
68051;DHT22;54839;51.364;7.246;2023-08-06T03:01:58;15.00;99.90
68051;DHT22;54839;51.364;7.246;2023-08-06T03:04:24;15.10;99.90
68051;DHT22;54839;51.364;7.246;2023-08-06T03:06:50;15.10;99.90
68051;DHT22;54839;51.364;7.246;2023-08-06T03:09:16;15.00;99.90
68051;DHT22;54839;51.364;7.246;2023-08-06T03:11:42;15.10;99.90
68051;DHT22;54839;51.364;7.246;2023-08-06T03:14:08;15.10;99.90
68051;DHT22;54839;51.364;7.246;2023-08-06T03:16:33;15.10;99.90
68051;DHT22;54839;51.364;7.246;2023-08-06T03:18:59;15.00;99.90
68051;DHT22;54839;51.364;7.246;2023-08-06T03:21:24;15.00;99.90
68051;DHT22;54839;51.364;7.246;2023-08-06T03:23:50;15.10;99.90
68051;DHT22;54839;51.364;7.246;2023-08-06T03:26:16;15.10;99.90
68051;DHT22;54839;51.364;7.246;2023-08-06T03:28:41;15.10;99.90
68051;DHT22;54839;51.364;7.246;2023-08-06T03:31:07;15.10;99.90
68051;DHT22;54839;51.364;7.246;2023-08-06T03:33:32;15.10;99.90
68051;DHT22;54839;51.364;7.246;2023-08-06T03:35:58;15.10;99.90
68051;DHT22;54839;51.364;7.246;2023-08-06T03:38:23;15.10;99.90
68051;DHT22;54839;51.364;7.246;2023-08-06T03:40:49;15.10;99.90
68051;DHT22;54839;51.364;7.246;2023-08-06T03:43:15;15.00;99.90
68051;DHT22;54839;51.364;7.246;2023-08-06T03:45:41;15.00;99.90
68051;DHT22;54839;51.364;7.246;2023-08-06T03:48:07;14.90;99.90
68051;DHT22;54839;51.364;7.246;2023-08-06T03:50:33;14.90;99.90
68051;DHT22;54839;51.364;7.246;2023-08-06T03:52:58;14.90;99.90
68051;DHT22;54839;51.364;7.246;2023-08-06T03:55:24;14.80;99.90
68051;DHT22;54839;51.364;7.246;2023-08-06T03:57:49;14.90;99.90
68051;DHT22;54839;51.364;7.246;2023-08-06T04:00:15;14.80;99.90
68051;DHT22;54839;51.364;7.246;2023-08-06T04:02:41;14.80;99.90
68051;DHT22;54839;51.364;7.246;2023-08-06T04:05:06;14.80;99.90
68051;DHT22;54839;51.364;7.246;2023-08-06T04:07:32;14.80;99.90
68051;DHT22;54839;51.364;7.246;2023-08-06T04:09:59;14.80;99.90
68051;DHT22;54839;51.364;7.246;2023-08-06T04:12:24;14.80;99.90
68051;DHT22;54839;51.364;7.246;2023-08-06T04:14:51;14.80;99.90
68051;DHT22;54839;51.364;7.246;2023-08-06T04:17:17;14.70;99.90
68051;DHT22;54839;51.364;7.246;2023-08-06T04:19:46;14.80;99.90
68051;DHT22;54839;51.364;7.246;2023-08-06T04:22:12;14.80;99.90
68051;DHT22;54839;51.364;7.246;2023-08-06T04:24:38;14.70;99.90
68051;DHT22;54839;51.364;7.246;2023-08-06T04:27:04;14.60;99.90
68051;DHT22;54839;51.364;7.246;2023-08-06T04:29:29;14.70;99.90
68051;DHT22;54839;51.364;7.246;2023-08-06T04:31:55;14.70;99.90
68051;DHT22;54839;51.364;7.246;2023-08-06T04:34:20;14.60;99.90
68051;DHT22;54839;51.364;7.246;2023-08-06T04:36:46;14.70;99.90
68051;DHT22;54839;51.364;7.246;2023-08-06T04:39:12;14.60;99.90
68051;DHT22;54839;51.364;7.246;2023-08-06T04:41:37;14.70;99.90
68051;DHT22;54839;51.364;7.246;2023-08-06T04:44:03;14.70;99.90
68051;DHT22;54839;51.364;7.246;2023-08-06T04:46:29;14.70;99.90
68051;DHT22;54839;51.364;7.246;2023-08-06T04:48:55;14.70;99.90
68051;DHT22;54839;51.364;7.246;2023-08-06T04:51:20;14.80;99.90
68051;DHT22;54839;51.364;7.246;2023-08-06T04:53:46;14.70;99.90
68051;DHT22;54839;51.364;7.246;2023-08-06T04:56:11;14.70;99.90
68051;DHT22;54839;51.364;7.246;2023-08-06T04:58:37;14.80;99.90
68051;DHT22;54839;51.364;7.246;2023-08-06T05:01:02;14.80;99.90
68051;DHT22;54839;51.364;7.246;2023-08-06T05:03:28;14.80;99.90
68051;DHT22;54839;51.364;7.246;2023-08-06T05:05:54;14.90;99.90
68051;DHT22;54839;51.364;7.246;2023-08-06T05:08:19;14.80;99.90
68051;DHT22;54839;51.364;7.246;2023-08-06T05:10:45;14.80;99.90
68051;DHT22;54839;51.364;7.246;2023-08-06T05:13:11;14.80;99.90
68051;DHT22;54839;51.364;7.246;2023-08-06T05:15:37;14.80;99.90
68051;DHT22;54839;51.364;7.246;2023-08-06T05:18:02;14.80;99.90
68051;DHT22;54839;51.364;7.246;2023-08-06T05:20:28;15.00;99.90
68051;DHT22;54839;51.364;7.246;2023-08-06T05:22:53;15.10;99.90
68051;DHT22;54839;51.364;7.246;2023-08-06T05:25:20;15.20;99.90
68051;DHT22;54839;51.364;7.246;2023-08-06T05:27:45;15.40;99.90
68051;DHT22;54839;51.364;7.246;2023-08-06T05:30:11;15.40;99.90
68051;DHT22;54839;51.364;7.246;2023-08-06T05:32:36;15.50;99.90
68051;DHT22;54839;51.364;7.246;2023-08-06T05:35:02;15.60;99.90
68051;DHT22;54839;51.364;7.246;2023-08-06T05:37:28;15.60;99.90
68051;DHT22;54839;51.364;7.246;2023-08-06T05:39:54;15.60;99.90
68051;DHT22;54839;51.364;7.246;2023-08-06T05:42:19;15.80;99.90
68051;DHT22;54839;51.364;7.246;2023-08-06T05:44:45;15.80;99.90
68051;DHT22;54839;51.364;7.246;2023-08-06T05:47:10;15.80;99.90
68051;DHT22;54839;51.364;7.246;2023-08-06T05:49:36;15.90;99.90
68051;DHT22;54839;51.364;7.246;2023-08-06T05:52:02;15.90;99.90
68051;DHT22;54839;51.364;7.246;2023-08-06T05:54:31;16.00;99.90
68051;DHT22;54839;51.364;7.246;2023-08-06T05:56:57;15.90;99.90
68051;DHT22;54839;51.364;7.246;2023-08-06T05:59:23;16.00;99.90
68051;DHT22;54839;51.364;7.246;2023-08-06T06:01:48;16.00;99.90
68051;DHT22;54839;51.364;7.246;2023-08-06T06:04:14;15.90;99.90
68051;DHT22;54839;51.364;7.246;2023-08-06T06:06:39;16.10;99.90
68051;DHT22;54839;51.364;7.246;2023-08-06T06:09:07;16.10;99.90
68051;DHT22;54839;51.364;7.246;2023-08-06T06:11:32;16.20;99.90
68051;DHT22;54839;51.364;7.246;2023-08-06T06:13:58;16.20;99.90
68051;DHT22;54839;51.364;7.246;2023-08-06T06:16:23;16.30;99.90
68051;DHT22;54839;51.364;7.246;2023-08-06T06:18:49;16.40;99.90
68051;DHT22;54839;51.364;7.246;2023-08-06T06:21:14;16.60;99.90
68051;DHT22;54839;51.364;7.246;2023-08-06T06:23:40;16.50;99.90
68051;DHT22;54839;51.364;7.246;2023-08-06T06:26:06;16.50;99.90
68051;DHT22;54839;51.364;7.246;2023-08-06T06:28:31;16.60;99.90
68051;DHT22;54839;51.364;7.246;2023-08-06T06:31:00;16.70;99.90
68051;DHT22;54839;51.364;7.246;2023-08-06T06:33:26;16.90;99.90
68051;DHT22;54839;51.364;7.246;2023-08-06T06:35:52;17.00;99.90
68051;DHT22;54839;51.364;7.246;2023-08-06T06:38:18;16.90;99.90
68051;DHT22;54839;51.364;7.246;2023-08-06T06:40:43;16.90;99.90
68051;DHT22;54839;51.364;7.246;2023-08-06T06:43:09;16.90;99.90
68051;DHT22;54839;51.364;7.246;2023-08-06T06:45:34;16.80;99.90
68051;DHT22;54839;51.364;7.246;2023-08-06T06:48:00;16.90;99.90
68051;DHT22;54839;51.364;7.246;2023-08-06T06:50:25;17.10;99.90
68051;DHT22;54839;51.364;7.246;2023-08-06T06:52:51;17.30;99.90
68051;DHT22;54839;51.364;7.246;2023-08-06T06:55:17;17.40;99.90
68051;DHT22;54839;51.364;7.246;2023-08-06T06:57:42;17.50;99.90
68051;DHT22;54839;51.364;7.246;2023-08-06T07:00:08;17.90;99.90
68051;DHT22;54839;51.364;7.246;2023-08-06T07:02:34;17.50;99.90
68051;DHT22;54839;51.364;7.246;2023-08-06T07:05:00;17.70;99.90
68051;DHT22;54839;51.364;7.246;2023-08-06T07:07:25;17.60;99.90
68051;DHT22;54839;51.364;7.246;2023-08-06T07:09:51;17.60;99.90
68051;DHT22;54839;51.364;7.246;2023-08-06T07:12:16;17.80;99.90
68051;DHT22;54839;51.364;7.246;2023-08-06T07:14:42;18.00;99.90
68051;DHT22;54839;51.364;7.246;2023-08-06T07:17:07;18.30;99.90
68051;DHT22;54839;51.364;7.246;2023-08-06T07:19:33;18.40;99.90
68051;DHT22;54839;51.364;7.246;2023-08-06T07:21:58;18.40;99.90
68051;DHT22;54839;51.364;7.246;2023-08-06T07:24:24;18.30;99.90
68051;DHT22;54839;51.364;7.246;2023-08-06T07:26:49;18.10;99.90
68051;DHT22;54839;51.364;7.246;2023-08-06T07:29:15;17.70;99.90
68051;DHT22;54839;51.364;7.246;2023-08-06T07:31:45;17.80;99.90
68051;DHT22;54839;51.364;7.246;2023-08-06T07:34:10;17.90;99.90
68051;DHT22;54839;51.364;7.246;2023-08-06T07:36:36;18.30;99.90
68051;DHT22;54839;51.364;7.246;2023-08-06T07:39:01;18.30;99.90
68051;DHT22;54839;51.364;7.246;2023-08-06T07:41:27;18.30;99.90
68051;DHT22;54839;51.364;7.246;2023-08-06T07:43:53;18.20;99.90
68051;DHT22;54839;51.364;7.246;2023-08-06T07:46:19;18.40;99.90
68051;DHT22;54839;51.364;7.246;2023-08-06T07:48:44;18.30;99.90
68051;DHT22;54839;51.364;7.246;2023-08-06T07:51:10;18.50;99.90
68051;DHT22;54839;51.364;7.246;2023-08-06T07:53:35;18.60;99.90
68051;DHT22;54839;51.364;7.246;2023-08-06T07:56:01;18.90;99.90
68051;DHT22;54839;51.364;7.246;2023-08-06T07:58:27;18.80;99.90
68051;DHT22;54839;51.364;7.246;2023-08-06T08:00:55;19.10;99.90
68051;DHT22;54839;51.364;7.246;2023-08-06T08:03:20;19.80;99.90
68051;DHT22;54839;51.364;7.246;2023-08-06T08:05:46;20.10;99.90
68051;DHT22;54839;51.364;7.246;2023-08-06T08:08:11;20.10;99.90
68051;DHT22;54839;51.364;7.246;2023-08-06T08:10:37;19.80;99.90
68051;DHT22;54839;51.364;7.246;2023-08-06T08:13:04;20.30;99.90
68051;DHT22;54839;51.364;7.246;2023-08-06T08:15:30;20.00;99.90
68051;DHT22;54839;51.364;7.246;2023-08-06T08:17:56;19.40;99.90
68051;DHT22;54839;51.364;7.246;2023-08-06T08:20:22;19.40;99.90
68051;DHT22;54839;51.364;7.246;2023-08-06T08:22:48;19.90;99.90
68051;DHT22;54839;51.364;7.246;2023-08-06T08:25:15;19.40;99.90
68051;DHT22;54839;51.364;7.246;2023-08-06T08:27:40;19.60;99.90
68051;DHT22;54839;51.364;7.246;2023-08-06T08:30:06;19.70;99.90
68051;DHT22;54839;51.364;7.246;2023-08-06T08:32:32;19.90;99.90
68051;DHT22;54839;51.364;7.246;2023-08-06T08:34:57;20.00;99.90
68051;DHT22;54839;51.364;7.246;2023-08-06T08:37:23;19.90;99.90
68051;DHT22;54839;51.364;7.246;2023-08-06T08:39:49;20.20;99.90
68051;DHT22;54839;51.364;7.246;2023-08-06T08:42:15;20.40;99.90
68051;DHT22;54839;51.364;7.246;2023-08-06T08:44:42;20.20;99.90
68051;DHT22;54839;51.364;7.246;2023-08-06T08:47:09;20.30;99.90
68051;DHT22;54839;51.364;7.246;2023-08-06T08:49:36;20.40;99.90
68051;DHT22;54839;51.364;7.246;2023-08-06T08:52:04;20.20;99.90
68051;DHT22;54839;51.364;7.246;2023-08-06T08:54:38;20.10;99.90
68051;DHT22;54839;51.364;7.246;2023-08-06T08:57:04;20.20;99.90
68051;DHT22;54839;51.364;7.246;2023-08-06T08:59:30;20.40;99.90
68051;DHT22;54839;51.364;7.246;2023-08-06T09:01:56;20.50;99.90
68051;DHT22;54839;51.364;7.246;2023-08-06T09:04:23;20.40;99.90
68051;DHT22;54839;51.364;7.246;2023-08-06T09:06:50;20.40;99.90
68051;DHT22;54839;51.364;7.246;2023-08-06T09:09:28;20.30;99.90
68051;DHT22;54839;51.364;7.246;2023-08-06T09:12:00;20.30;99.90
68051;DHT22;54839;51.364;7.246;2023-08-06T09:14:27;20.40;99.90
68051;DHT22;54839;51.364;7.246;2023-08-06T09:16:53;20.50;99.90
68051;DHT22;54839;51.364;7.246;2023-08-06T09:19:19;20.60;99.90
68051;DHT22;54839;51.364;7.246;2023-08-06T09:21:46;20.80;99.90
68051;DHT22;54839;51.364;7.246;2023-08-06T09:24:14;20.90;99.90
68051;DHT22;54839;51.364;7.246;2023-08-06T09:26:43;21.10;99.90
68051;DHT22;54839;51.364;7.246;2023-08-06T09:29:10;21.00;99.90
68051;DHT22;54839;51.364;7.246;2023-08-06T09:31:43;20.80;99.90
68051;DHT22;54839;51.364;7.246;2023-08-06T09:34:16;21.00;99.90
68051;DHT22;54839;51.364;7.246;2023-08-06T09:36:49;21.10;99.90
68051;DHT22;54839;51.364;7.246;2023-08-06T09:39:35;21.00;99.90
68051;DHT22;54839;51.364;7.246;2023-08-06T09:42:01;20.80;99.90
68051;DHT22;54839;51.364;7.246;2023-08-06T09:44:33;20.80;99.90
68051;DHT22;54839;51.364;7.246;2023-08-06T09:47:00;20.90;99.90
68051;DHT22;54839;51.364;7.246;2023-08-06T09:49:28;20.90;99.90
68051;DHT22;54839;51.364;7.246;2023-08-06T09:51:54;21.40;99.90
68051;DHT22;54839;51.364;7.246;2023-08-06T09:54:24;20.80;99.90
68051;DHT22;54839;51.364;7.246;2023-08-06T09:56:55;21.10;99.90
68051;DHT22;54839;51.364;7.246;2023-08-06T09:59:20;21.30;99.90
68051;DHT22;54839;51.364;7.246;2023-08-06T10:01:46;21.30;99.90
68051;DHT22;54839;51.364;7.246;2023-08-06T10:04:14;20.60;99.90
68051;DHT22;54839;51.364;7.246;2023-08-06T10:06:42;20.20;99.90
68051;DHT22;54839;51.364;7.246;2023-08-06T10:09:09;20.50;99.90
68051;DHT22;54839;51.364;7.246;2023-08-06T10:11:37;21.10;99.90
68051;DHT22;54839;51.364;7.246;2023-08-06T10:14:21;21.50;99.90
68051;DHT22;54839;51.364;7.246;2023-08-06T10:16:48;21.50;99.90
68051;DHT22;54839;51.364;7.246;2023-08-06T10:19:15;21.10;99.90
68051;DHT22;54839;51.364;7.246;2023-08-06T10:21:42;21.60;99.90
68051;DHT22;54839;51.364;7.246;2023-08-06T10:24:21;22.10;99.90
68051;DHT22;54839;51.364;7.246;2023-08-06T10:26:47;22.40;99.90
68051;DHT22;54839;51.364;7.246;2023-08-06T10:29:34;22.10;99.90
68051;DHT22;54839;51.364;7.246;2023-08-06T10:32:01;21.50;99.90
68051;DHT22;54839;51.364;7.246;2023-08-06T10:34:53;21.50;99.90
68051;DHT22;54839;51.364;7.246;2023-08-06T10:37:20;21.80;99.90
68051;DHT22;54839;51.364;7.246;2023-08-06T10:39:51;21.80;99.90
68051;DHT22;54839;51.364;7.246;2023-08-06T10:42:28;22.30;99.90
68051;DHT22;54839;51.364;7.246;2023-08-06T10:45:19;22.70;99.90
68051;DHT22;54839;51.364;7.246;2023-08-06T10:47:45;22.30;99.90
68051;DHT22;54839;51.364;7.246;2023-08-06T10:50:15;22.50;99.90
68051;DHT22;54839;51.364;7.246;2023-08-06T10:52:45;22.40;99.90
68051;DHT22;54839;51.364;7.246;2023-08-06T10:55:10;22.30;99.90
68051;DHT22;54839;51.364;7.246;2023-08-06T10:57:36;22.00;99.90
68051;DHT22;54839;51.364;7.246;2023-08-06T11:00:06;22.10;99.90
68051;DHT22;54839;51.364;7.246;2023-08-06T11:02:36;22.20;99.90
68051;DHT22;54839;51.364;7.246;2023-08-06T11:05:07;22.40;99.90
68051;DHT22;54839;51.364;7.246;2023-08-06T11:07:33;21.70;99.90
68051;DHT22;54839;51.364;7.246;2023-08-06T11:10:03;21.80;99.90
68051;DHT22;54839;51.364;7.246;2023-08-06T11:12:30;22.10;99.90
68051;DHT22;54839;51.364;7.246;2023-08-06T11:14:56;22.10;99.90
68051;DHT22;54839;51.364;7.246;2023-08-06T11:17:22;22.30;99.90
68051;DHT22;54839;51.364;7.246;2023-08-06T11:19:47;22.70;99.90
68051;DHT22;54839;51.364;7.246;2023-08-06T11:22:14;22.20;99.90
68051;DHT22;54839;51.364;7.246;2023-08-06T11:24:40;22.00;99.90
68051;DHT22;54839;51.364;7.246;2023-08-06T11:27:16;22.00;99.90
68051;DHT22;54839;51.364;7.246;2023-08-06T11:29:43;21.60;99.90
68051;DHT22;54839;51.364;7.246;2023-08-06T11:32:09;21.20;99.90
68051;DHT22;54839;51.364;7.246;2023-08-06T11:34:36;20.50;99.90
68051;DHT22;54839;51.364;7.246;2023-08-06T11:37:06;19.60;99.90
68051;DHT22;54839;51.364;7.246;2023-08-06T11:39:36;17.90;99.90
68051;DHT22;54839;51.364;7.246;2023-08-06T11:42:06;16.60;99.90
68051;DHT22;54839;51.364;7.246;2023-08-06T11:44:34;15.90;99.90
68051;DHT22;54839;51.364;7.246;2023-08-06T11:47:01;16.00;99.90
68051;DHT22;54839;51.364;7.246;2023-08-06T11:49:47;15.60;99.90
68051;DHT22;54839;51.364;7.246;2023-08-06T11:52:20;15.30;99.90
68051;DHT22;54839;51.364;7.246;2023-08-06T11:55:07;15.10;99.90
68051;DHT22;54839;51.364;7.246;2023-08-06T11:57:38;14.90;99.90
68051;DHT22;54839;51.364;7.246;2023-08-06T12:00:10;14.70;99.90
68051;DHT22;54839;51.364;7.246;2023-08-06T12:02:42;14.60;99.90
68051;DHT22;54839;51.364;7.246;2023-08-06T12:05:18;14.50;99.90
68051;DHT22;54839;51.364;7.246;2023-08-06T12:07:54;14.40;99.90
68051;DHT22;54839;51.364;7.246;2023-08-06T12:10:22;14.50;99.90
68051;DHT22;54839;51.364;7.246;2023-08-06T12:12:49;14.40;99.90
68051;DHT22;54839;51.364;7.246;2023-08-06T12:15:15;14.30;99.90
68051;DHT22;54839;51.364;7.246;2023-08-06T12:17:41;14.20;99.90
68051;DHT22;54839;51.364;7.246;2023-08-06T12:20:07;14.20;99.90
68051;DHT22;54839;51.364;7.246;2023-08-06T12:22:34;14.20;99.90
68051;DHT22;54839;51.364;7.246;2023-08-06T12:25:07;14.20;99.90
68051;DHT22;54839;51.364;7.246;2023-08-06T12:27:37;14.10;99.90
68051;DHT22;54839;51.364;7.246;2023-08-06T12:30:03;14.10;99.90
68051;DHT22;54839;51.364;7.246;2023-08-06T12:32:30;14.10;99.90
68051;DHT22;54839;51.364;7.246;2023-08-06T12:34:55;14.20;99.90
68051;DHT22;54839;51.364;7.246;2023-08-06T12:37:21;14.00;99.90
68051;DHT22;54839;51.364;7.246;2023-08-06T12:39:47;14.10;99.90
68051;DHT22;54839;51.364;7.246;2023-08-06T12:42:12;14.00;99.90
68051;DHT22;54839;51.364;7.246;2023-08-06T12:44:38;14.00;99.90
68051;DHT22;54839;51.364;7.246;2023-08-06T12:47:04;13.90;99.90
68051;DHT22;54839;51.364;7.246;2023-08-06T12:49:29;13.90;99.90
68051;DHT22;54839;51.364;7.246;2023-08-06T12:51:57;13.90;99.90
68051;DHT22;54839;51.364;7.246;2023-08-06T12:54:23;13.90;99.90
68051;DHT22;54839;51.364;7.246;2023-08-06T12:56:49;14.00;99.90
68051;DHT22;54839;51.364;7.246;2023-08-06T12:59:16;14.10;99.90
68051;DHT22;54839;51.364;7.246;2023-08-06T13:01:42;14.10;99.90
68051;DHT22;54839;51.364;7.246;2023-08-06T13:04:08;14.10;99.90
68051;DHT22;54839;51.364;7.246;2023-08-06T13:06:34;14.00;99.90
68051;DHT22;54839;51.364;7.246;2023-08-06T13:09:12;14.10;99.90
68051;DHT22;54839;51.364;7.246;2023-08-06T13:11:41;14.20;99.90
68051;DHT22;54839;51.364;7.246;2023-08-06T13:14:08;14.20;99.90
68051;DHT22;54839;51.364;7.246;2023-08-06T13:16:35;14.20;99.90
68051;DHT22;54839;51.364;7.246;2023-08-06T13:19:02;14.30;99.90
68051;DHT22;54839;51.364;7.246;2023-08-06T13:21:32;14.30;99.90
68051;DHT22;54839;51.364;7.246;2023-08-06T13:23:58;14.60;99.90
68051;DHT22;54839;51.364;7.246;2023-08-06T13:26:23;14.40;99.90
68051;DHT22;54839;51.364;7.246;2023-08-06T13:28:49;14.30;99.90
68051;DHT22;54839;51.364;7.246;2023-08-06T13:31:16;14.40;99.90
68051;DHT22;54839;51.364;7.246;2023-08-06T13:33:41;14.30;99.90
68051;DHT22;54839;51.364;7.246;2023-08-06T13:36:07;14.30;99.90
68051;DHT22;54839;51.364;7.246;2023-08-06T13:38:32;14.40;99.90
68051;DHT22;54839;51.364;7.246;2023-08-06T13:40:58;14.50;99.90
68051;DHT22;54839;51.364;7.246;2023-08-06T13:43:24;14.40;99.90
68051;DHT22;54839;51.364;7.246;2023-08-06T13:45:50;14.40;99.90
68051;DHT22;54839;51.364;7.246;2023-08-06T13:48:15;14.50;99.90
68051;DHT22;54839;51.364;7.246;2023-08-06T13:50:41;14.70;99.90
68051;DHT22;54839;51.364;7.246;2023-08-06T13:53:06;14.80;99.90
68051;DHT22;54839;51.364;7.246;2023-08-06T13:55:32;14.60;99.90
68051;DHT22;54839;51.364;7.246;2023-08-06T13:57:57;14.60;99.90
68051;DHT22;54839;51.364;7.246;2023-08-06T14:00:23;14.70;99.90
68051;DHT22;54839;51.364;7.246;2023-08-06T14:02:49;14.70;99.90
68051;DHT22;54839;51.364;7.246;2023-08-06T14:05:14;14.70;99.90
68051;DHT22;54839;51.364;7.246;2023-08-06T14:07:40;15.00;99.90
68051;DHT22;54839;51.364;7.246;2023-08-06T14:10:06;15.10;99.90
68051;DHT22;54839;51.364;7.246;2023-08-06T14:12:32;15.10;99.90
68051;DHT22;54839;51.364;7.246;2023-08-06T14:14:57;15.20;99.90
68051;DHT22;54839;51.364;7.246;2023-08-06T14:17:24;15.10;99.90
68051;DHT22;54839;51.364;7.246;2023-08-06T14:19:49;15.00;99.90
68051;DHT22;54839;51.364;7.246;2023-08-06T14:22:15;15.00;99.90
68051;DHT22;54839;51.364;7.246;2023-08-06T14:24:41;14.90;99.90
68051;DHT22;54839;51.364;7.246;2023-08-06T14:27:07;14.80;99.90
68051;DHT22;54839;51.364;7.246;2023-08-06T14:29:32;14.60;99.90
68051;DHT22;54839;51.364;7.246;2023-08-06T14:31:58;14.50;99.90
68051;DHT22;54839;51.364;7.246;2023-08-06T14:34:23;14.60;99.90
68051;DHT22;54839;51.364;7.246;2023-08-06T14:36:49;14.60;99.90
68051;DHT22;54839;51.364;7.246;2023-08-06T14:39:15;14.70;99.90
68051;DHT22;54839;51.364;7.246;2023-08-06T14:41:40;14.60;99.90
68051;DHT22;54839;51.364;7.246;2023-08-06T14:44:06;14.50;99.90
68051;DHT22;54839;51.364;7.246;2023-08-06T14:46:33;14.50;99.90
68051;DHT22;54839;51.364;7.246;2023-08-06T14:48:58;14.50;99.90
68051;DHT22;54839;51.364;7.246;2023-08-06T14:51:24;14.30;99.90
68051;DHT22;54839;51.364;7.246;2023-08-06T14:53:49;14.30;99.90
68051;DHT22;54839;51.364;7.246;2023-08-06T14:56:15;14.30;99.90
68051;DHT22;54839;51.364;7.246;2023-08-06T14:58:41;14.20;99.90
68051;DHT22;54839;51.364;7.246;2023-08-06T15:01:07;14.20;99.90
68051;DHT22;54839;51.364;7.246;2023-08-06T15:03:33;14.30;99.90
68051;DHT22;54839;51.364;7.246;2023-08-06T15:05:59;14.30;99.90
68051;DHT22;54839;51.364;7.246;2023-08-06T15:08:24;14.30;99.90
68051;DHT22;54839;51.364;7.246;2023-08-06T15:10:51;14.20;99.90
68051;DHT22;54839;51.364;7.246;2023-08-06T15:13:18;14.20;99.90
68051;DHT22;54839;51.364;7.246;2023-08-06T15:15:43;14.10;99.90
68051;DHT22;54839;51.364;7.246;2023-08-06T15:18:10;14.30;99.90
68051;DHT22;54839;51.364;7.246;2023-08-06T15:20:36;14.10;99.90
68051;DHT22;54839;51.364;7.246;2023-08-06T15:23:02;14.20;99.90
68051;DHT22;54839;51.364;7.246;2023-08-06T15:25:27;14.30;99.90
68051;DHT22;54839;51.364;7.246;2023-08-06T15:27:53;14.30;99.90
68051;DHT22;54839;51.364;7.246;2023-08-06T15:30:19;14.50;99.90
68051;DHT22;54839;51.364;7.246;2023-08-06T15:32:46;14.60;99.90
68051;DHT22;54839;51.364;7.246;2023-08-06T15:35:12;14.60;99.90
68051;DHT22;54839;51.364;7.246;2023-08-06T15:37:38;14.60;99.90